< < Back
Terminal Aerodrome Forecast


Current Version              Previous Versions:   1  2  3  4  5  6  7  8  9  

Terminal Aerodrome Forecast

173
FTUS42 KCAE 311100
TAFAGS
TAF
KAGS 311128Z 3112/0112 VRB03KT P6SM SKC
     FM311500 VRB05KT P6SM SCT200
     FM010000 18003KT P6SM BKN150=



Latest METAR

304
SAUS70 KWBC 311600 RRB
MTRAGS
METAR KAGS 311553Z 00000KT 10SM CLR 07/M07 A3042 RMK AO2 SLP301
T00721067


USA.gov is the U.S. government's official web portal to all federal, state and local government web resources and services.